Time;durP1;ratioP1;P1;durP2;ratioP2;P2;SDS_P1;SDS_P2;PMS_P1;PMS_P2;Temp;Humidity;BMP_temperature;BMP_pressure;BME280_temperature;BME280_humidity;BME280_pressure;Samples;Min_cycle;Max_cycle;Signal;HPM_P1;HPM_P2
2022/05/15 00:02:09;;;;;;;6.67;5.80;;;10.10;99.90;;;;;;5070361;28;20271;-73
2022/05/15 00:04:36;;;;;;;7.90;6.10;;;10.40;99.90;;;;;;5070457;28;20193;-73
2022/05/15 00:07:05;;;;;;;8.17;6.43;;;10.40;99.90;;;;;;5088961;28;20191;-73
2022/05/15 00:09:32;;;;;;;8.10;5.97;;;10.40;99.90;;;;;;5113091;28;20685;-73
2022/05/15 00:11:58;;;;;;;6.50;5.83;;;10.40;99.90;;;;;;5113128;28;20339;-73
2022/05/15 00:14:25;;;;;;;8.93;6.10;;;10.30;99.90;;;;;;5113072;28;20196;-73
2022/05/15 00:16:52;;;;;;;8.47;6.33;;;10.10;99.90;;;;;;5113233;28;20196;-73
2022/05/15 00:19:19;;;;;;;9.67;5.67;;;10.20;99.90;;;;;;5113188;28;20256;-73
2022/05/15 00:21:45;;;;;;;9.77;5.80;;;10.30;99.90;;;;;;5113031;28;20264;-73
2022/05/15 00:24:13;;;;;;;10.77;5.80;;;10.30;99.90;;;;;;5113111;28;20196;-73
2022/05/15 00:26:40;;;;;;;10.20;5.97;;;10.30;99.90;;;;;;5112963;28;20249;-73
2022/05/15 00:29:07;;;;;;;8.50;6.07;;;10.30;99.90;;;;;;5113005;28;20650;-73
2022/05/15 00:31:33;;;;;;;8.93;6.50;;;10.10;99.90;;;;;;5112903;28;20679;-73
2022/05/15 00:34:00;;;;;;;8.27;6.10;;;10.00;99.90;;;;;;5113029;28;20196;-73
2022/05/15 00:36:27;;;;;;;7.37;6.00;;;9.90;99.90;;;;;;5113038;28;20195;-72
2022/05/15 00:38:54;;;;;;;7.30;5.93;;;10.10;99.90;;;;;;5112866;28;20195;-72
2022/05/15 00:41:22;;;;;;;7.73;6.00;;;10.00;99.90;;;;;;5112711;28;20359;-72
2022/05/15 00:43:51;;;;;;;9.23;6.37;;;9.90;99.90;;;;;;5113045;28;20199;-72
2022/05/15 00:46:21;;;;;;;8.87;6.23;;;9.80;99.90;;;;;;5113019;28;20196;-73
2022/05/15 00:48:49;;;;;;;9.37;6.37;;;10.00;99.90;;;;;;5112925;28;20290;-73
2022/05/15 00:51:21;;;;;;;7.60;6.37;;;9.80;99.90;;;;;;5112874;28;20200;-73
2022/05/15 00:53:50;;;;;;;10.27;6.37;;;9.80;99.90;;;;;;5112674;28;20241;-73
2022/05/15 00:56:20;;;;;;;9.50;6.80;;;9.60;99.90;;;;;;5112948;28;20195;-73
2022/05/15 00:58:53;;;;;;;6.53;5.83;;;9.60;99.90;;;;;;5112990;28;20200;-73
2022/05/15 01:01:20;;;;;;;8.07;6.20;;;9.40;99.90;;;;;;5115392;28;20234;-72
2022/05/15 01:03:48;;;;;;;8.93;6.60;;;9.30;99.90;;;;;;5116699;28;20256;-73
2022/05/15 01:06:15;;;;;;;8.73;6.20;;;9.20;99.90;;;;;;5116562;28;20249;-73
2022/05/15 01:08:41;;;;;;;9.30;6.33;;;9.10;99.90;;;;;;5116716;28;20199;-73
2022/05/15 01:11:13;;;;;;;6.90;6.20;;;9.10;99.90;;;;;;5116599;28;20228;-73
2022/05/15 01:13:43;;;;;;;8.40;6.43;;;9.00;99.90;;;;;;5116510;28;20249;-73
2022/05/15 01:16:12;;;;;;;8.23;7.07;;;9.00;99.90;;;;;;5116434;28;20192;-73
2022/05/15 01:18:39;;;;;;;12.93;7.03;;;8.90;99.90;;;;;;5116338;28;20204;-73
2022/05/15 01:21:23;;;;;;;9.03;7.30;;;8.90;99.90;;;;;;5116173;28;20658;-73
2022/05/15 01:23:50;;;;;;;9.90;6.63;;;8.90;99.90;;;;;;5116407;28;20238;-73
2022/05/15 01:26:17;;;;;;;9.73;7.27;;;9.10;99.90;;;;;;5116281;28;20566;-73
2022/05/15 01:28:45;;;;;;;11.43;6.90;;;9.30;99.90;;;;;;5116135;28;20208;-73
2022/05/15 01:31:13;;;;;;;8.27;6.70;;;9.10;99.90;;;;;;5116029;28;20290;-73
2022/05/15 01:33:40;;;;;;;11.13;7.07;;;9.00;99.90;;;;;;5116014;28;20244;-73
2022/05/15 01:36:07;;;;;;;9.33;7.30;;;9.00;99.90;;;;;;5116004;28;20199;-72
2022/05/15 01:38:35;;;;;;;10.63;7.10;;;9.10;99.90;;;;;;5116102;28;20619;-73
2022/05/15 01:41:02;;;;;;;10.47;6.70;;;9.20;99.90;;;;;;5118580;28;20203;-72
2022/05/15 01:43:29;;;;;;;9.37;6.97;;;9.20;99.90;;;;;;5120791;28;20229;-72
2022/05/15 01:45:56;;;;;;;7.97;6.80;;;9.10;99.90;;;;;;5117775;28;20201;-73
2022/05/15 01:48:22;;;;;;;10.10;7.20;;;9.00;99.90;;;;;;5117651;28;20208;-72
2022/05/15 01:50:49;;;;;;;12.80;7.57;;;8.80;99.90;;;;;;5116364;28;20192;-72
2022/05/15 01:53:16;;;;;;;8.60;6.73;;;8.90;99.90;;;;;;5115843;28;20272;-73
2022/05/15 01:55:43;;;;;;;10.60;6.97;;;8.70;99.90;;;;;;5115589;28;20204;-73
2022/05/15 01:58:10;;;;;;;10.13;7.33;;;8.80;99.90;;;;;;5115421;28;20196;-73
2022/05/15 02:00:38;;;;;;;8.83;7.50;;;8.80;99.90;;;;;;5115191;28;20314;-73
2022/05/15 02:03:04;;;;;;;10.83;7.90;;;8.70;99.90;;;;;;5115452;28;20227;-73
2022/05/15 02:05:31;;;;;;;10.60;7.27;;;8.70;99.90;;;;;;5115494;28;20244;-73
2022/05/15 02:07:58;;;;;;;9.83;7.80;;;8.70;99.90;;;;;;5115482;28;20192;-73
2022/05/15 02:10:24;;;;;;;7.43;6.70;;;8.70;99.90;;;;;;5115288;28;20204;-73
2022/05/15 02:12:52;;;;;;;9.97;7.40;;;8.60;99.90;;;;;;5114981;28;20195;-73
2022/05/15 02:15:19;;;;;;;9.33;7.10;;;8.70;99.90;;;;;;5115444;28;20195;-72
2022/05/15 02:17:46;;;;;;;14.53;7.83;;;8.50;99.90;;;;;;5115144;28;20703;-73
2022/05/15 02:20:14;;;;;;;8.93;7.47;;;8.70;99.90;;;;;;5115244;28;20199;-73
2022/05/15 02:22:41;;;;;;;9.77;7.17;;;8.80;99.90;;;;;;5115111;28;20220;-72
2022/05/15 02:25:10;;;;;;;8.43;6.63;;;8.90;99.90;;;;;;5115127;28;20566;-72
2022/05/15 02:27:37;;;;;;;9.37;6.83;;;8.90;99.90;;;;;;5114961;28;20213;-72
2022/05/15 02:30:07;;;;;;;10.03;6.77;;;8.70;99.90;;;;;;5118396;28;20222;-72
2022/05/15 02:32:33;;;;;;;8.73;7.00;;;8.50;99.90;;;;;;5122840;28;20199;-72
2022/05/15 02:35:00;;;;;;;8.83;6.70;;;8.40;99.90;;;;;;5115377;28;20199;-72
2022/05/15 02:37:26;;;;;;;9.70;7.07;;;8.30;99.90;;;;;;5115157;28;20275;-72
2022/05/15 02:39:53;;;;;;;9.97;7.27;;;8.10;99.90;;;;;;5114996;28;20256;-73
2022/05/15 02:42:20;;;;;;;10.20;7.33;;;8.10;99.90;;;;;;5114883;28;20280;-73
2022/05/15 02:44:47;;;;;;;9.90;7.43;;;8.20;99.90;;;;;;5114989;28;20286;-73
2022/05/15 02:47:15;;;;;;;11.07;7.70;;;8.20;99.90;;;;;;5114725;28;20199;-72
2022/05/15 02:52:26;;;;;;;10.30;7.70;;;8.00;99.90;;;;;;5114682;28;20190;-73
2022/05/15 02:54:53;;;;;;;9.27;7.50;;;7.90;99.90;;;;;;5114493;28;20207;-72
2022/05/15 02:57:19;;;;;;;10.50;7.73;;;7.90;99.90;;;;;;5114553;28;20200;-72
2022/05/15 02:59:46;;;;;;;11.00;7.97;;;7.80;99.90;;;;;;5114396;28;20260;-73
2022/05/15 03:02:14;;;;;;;11.47;7.90;;;7.80;99.90;;;;;;5114291;28;20227;-72
2022/05/15 03:04:41;;;;;;;11.33;7.83;;;7.70;99.90;;;;;;5114216;28;20647;-72
2022/05/15 03:07:08;;;;;;;12.17;8.03;;;7.70;99.90;;;;;;5114087;28;20654;-72
2022/05/15 03:09:35;;;;;;;11.93;8.33;;;7.60;99.90;;;;;;5114487;28;20279;-72
2022/05/15 03:12:02;;;;;;;9.40;7.70;;;7.60;99.90;;;;;;5114348;28;20608;-73
2022/05/15 03:14:28;;;;;;;10.77;7.93;;;7.60;99.90;;;;;;5114246;28;20544;-72
2022/05/15 03:16:55;;;;;;;11.47;8.33;;;7.70;99.90;;;;;;5114085;28;20199;-73
2022/05/15 03:19:23;;;;;;;10.93;8.33;;;7.60;99.90;;;;;;5113982;28;20237;-72
2022/05/15 03:21:50;;;;;;;10.80;7.63;;;7.60;99.90;;;;;;5113758;28;20662;-72
2022/05/15 03:24:17;;;;;;;10.03;7.73;;;7.60;99.90;;;;;;5113239;28;20249;-72
2022/05/15 03:26:47;;;;;;;10.50;8.23;;;7.50;99.90;;;;;;5113749;28;20249;-73
2022/05/15 03:29:17;;;;;;;10.63;8.33;;;7.50;99.90;;;;;;5113934;28;20200;-72
2022/05/15 03:31:43;;;;;;;9.43;8.13;;;7.50;99.90;;;;;;5113738;28;20250;-72
2022/05/15 03:34:13;;;;;;;11.87;8.33;;;7.50;99.90;;;;;;5113646;28;20207;-73
2022/05/15 03:36:42;;;;;;;9.97;8.50;;;7.50;99.90;;;;;;5113574;28;20200;-73
2022/05/15 03:39:10;;;;;;;12.50;8.50;;;7.50;99.90;;;;;;5113742;28;20200;-73
2022/05/15 03:41:37;;;;;;;12.10;8.13;;;7.50;99.90;;;;;;5113438;28;20611;-73
2022/05/15 03:44:05;;;;;;;12.03;8.60;;;7.50;99.90;;;;;;5113499;28;20226;-73
2022/05/15 03:46:32;;;;;;;11.60;8.80;;;7.40;99.90;;;;;;5113399;28;20200;-73
2022/05/15 03:48:59;;;;;;;10.33;9.13;;;7.40;99.90;;;;;;5113302;28;20597;-73
2022/05/15 03:51:26;;;;;;;10.43;8.30;;;7.50;99.90;;;;;;5113555;28;20200;-73
2022/05/15 03:53:54;;;;;;;11.30;8.77;;;7.60;99.90;;;;;;5113458;28;20196;-73
2022/05/15 03:56:49;;;;;;;9.30;8.00;;;7.60;99.90;;;;;;5113433;28;20278;-73
2022/05/15 03:59:08;;;;;;;10.93;8.60;;;7.50;99.90;;;;;;5113019;28;20195;-73
2022/05/15 04:01:35;;;;;;;11.70;8.30;;;7.50;99.90;;;;;;5113179;28;20279;-73
2022/05/15 04:04:01;;;;;;;9.23;8.27;;;7.50;99.90;;;;;;5113325;28;20223;-73
2022/05/15 04:06:28;;;;;;;9.23;8.23;;;7.60;99.90;;;;;;5113388;28;20203;-73
2022/05/15 04:08:56;;;;;;;9.07;7.40;;;7.60;99.90;;;;;;5113261;28;20198;-73
2022/05/15 04:11:23;;;;;;;11.77;8.30;;;7.60;99.90;;;;;;5113165;28;20600;-73
2022/05/15 04:13:49;;;;;;;11.57;8.60;;;7.70;99.90;;;;;;5113047;28;20204;-73
2022/05/15 04:16:16;;;;;;;12.77;7.90;;;7.80;99.90;;;;;;5113384;28;20242;-73
2022/05/15 04:18:43;;;;;;;10.30;7.83;;;7.80;99.90;;;;;;5113433;28;20249;-73
2022/05/15 04:21:10;;;;;;;9.60;7.63;;;7.80;99.90;;;;;;5113289;28;20241;-73
2022/05/15 04:23:37;;;;;;;9.70;7.80;;;7.80;99.90;;;;;;5113045;28;20230;-73
2022/05/15 04:26:05;;;;;;;9.73;7.07;;;7.90;99.90;;;;;;5113085;28;20204;-73
2022/05/15 04:28:32;;;;;;;10.10;7.87;;;7.90;99.90;;;;;;5112912;28;20259;-73
2022/05/15 04:30:59;;;;;;;10.40;7.37;;;7.90;99.90;;;;;;5113216;28;20195;-73
2022/05/15 04:33:25;;;;;;;8.37;7.03;;;8.10;99.90;;;;;;5113105;28;20201;-73
2022/05/15 04:35:52;;;;;;;11.17;7.50;;;8.20;99.90;;;;;;5116965;28;20244;-72
2022/05/15 04:38:19;;;;;;;9.77;7.37;;;8.30;99.90;;;;;;5117226;28;20598;-73
2022/05/15 04:40:45;;;;;;;10.13;7.33;;;8.40;99.90;;;;;;5117001;28;20258;-73
2022/05/15 04:43:13;;;;;;;8.10;6.73;;;8.60;99.90;;;;;;5117164;28;20215;-73
2022/05/15 04:45:40;;;;;;;8.07;7.03;;;8.90;99.90;;;;;;5117106;28;20200;-73
2022/05/15 04:48:09;;;;;;;11.47;7.03;;;9.00;99.90;;;;;;5117010;28;20191;-73
2022/05/15 04:50:37;;;;;;;11.57;7.10;;;9.20;99.90;;;;;;5116983;28;20191;-73
2022/05/15 04:53:04;;;;;;;9.37;6.77;;;9.20;99.90;;;;;;5116884;28;20200;-72
2022/05/15 04:55:31;;;;;;;7.90;6.33;;;9.40;99.90;;;;;;5115788;28;20203;-72
2022/05/15 04:57:57;;;;;;;8.47;6.33;;;9.40;99.90;;;;;;5116599;28;20203;-72
2022/05/15 05:00:26;;;;;;;6.77;6.07;;;9.50;99.90;;;;;;5119550;28;20239;-72
2022/05/15 05:02:52;;;;;;;8.47;6.17;;;9.60;99.90;;;;;;5118082;28;20219;-73
2022/05/15 05:05:19;;;;;;;8.57;6.60;;;9.70;99.90;;;;;;5114734;28;20203;-73
2022/05/15 05:07:46;;;;;;;6.80;6.10;;;9.90;99.90;;;;;;5113805;28;20226;-73
2022/05/15 05:10:15;;;;;;;8.93;5.80;;;10.00;99.90;;;;;;5114364;28;20261;-73
2022/05/15 05:12:41;;;;;;;8.17;6.00;;;10.10;99.90;;;;;;5113863;28;20703;-73
2022/05/15 05:15:10;;;;;;;9.83;6.03;;;10.20;99.90;;;;;;5114186;28;20192;-73
2022/05/15 05:17:38;;;;;;;8.53;5.63;;;10.30;99.90;;;;;;5114184;28;20249;-73
2022/05/15 05:20:05;;;;;;;7.07;6.00;;;10.50;99.90;;;;;;5113554;28;20212;-73
2022/05/15 05:22:32;;;;;;;11.23;6.53;;;10.60;99.90;;;;;;5113688;28;20605;-73
2022/05/15 05:24:59;;;;;;;7.77;6.00;;;10.70;99.90;;;;;;5114129;28;20272;-73
2022/05/15 05:27:25;;;;;;;8.43;5.57;;;10.80;99.90;;;;;;5113794;28;20199;-73
2022/05/15 05:29:52;;;;;;;7.40;6.40;;;10.90;99.90;;;;;;5113666;28;20735;-73
2022/05/15 05:32:19;;;;;;;8.33;6.10;;;10.90;99.90;;;;;;5113278;28;20199;-73
2022/05/15 05:34:47;;;;;;;7.47;6.13;;;11.00;99.90;;;;;;5113629;28;20233;-73
2022/05/15 05:37:14;;;;;;;8.40;6.20;;;11.10;99.90;;;;;;5113429;28;20219;-73
2022/05/15 05:39:41;;;;;;;10.20;6.43;;;11.20;99.90;;;;;;5113568;28;20579;-73
2022/05/15 05:42:08;;;;;;;9.93;6.53;;;11.40;99.90;;;;;;5113456;28;20888;-73
2022/05/15 05:44:35;;;;;;;8.67;6.43;;;11.40;99.90;;;;;;5113721;28;20224;-73
2022/05/15 05:47:01;;;;;;;7.93;6.37;;;11.60;99.90;;;;;;5115022;28;20229;-72
2022/05/15 05:49:28;;;;;;;9.63;6.70;;;11.80;99.90;;;;;;5119265;28;20196;-72
2022/05/15 05:51:56;;;;;;;6.97;6.20;;;11.90;99.90;;;;;;5116107;28;20199;-71
2022/05/15 05:54:23;;;;;;;8.77;7.10;;;12.10;99.90;;;;;;5115956;28;20196;-73
2022/05/15 05:56:49;;;;;;;9.60;6.60;;;12.20;99.90;;;;;;5119287;27;20247;-72
2022/05/15 05:59:16;;;;;;;9.80;6.17;;;12.30;99.90;;;;;;5135967;27;20599;-72
2022/05/15 06:01:43;;;;;;;9.23;6.87;;;12.50;99.90;;;;;;5135761;27;20244;-72
2022/05/15 06:06:55;;;;;;;11.03;9.87;;;12.80;99.90;;;;;;5135947;27;20228;-72
2022/05/15 06:09:22;;;;;;;9.30;6.93;;;13.00;99.90;;;;;;5136168;27;20195;-72
2022/05/15 06:11:49;;;;;;;8.03;5.93;;;13.20;99.90;;;;;;5135832;27;20191;-72
2022/05/15 06:14:16;;;;;;;8.83;6.50;;;13.40;99.90;;;;;;5135875;27;20195;-72
2022/05/15 06:16:43;;;;;;;11.20;6.07;;;13.60;99.90;;;;;;5135710;27;20686;-72
2022/05/15 06:19:10;;;;;;;9.47;6.53;;;13.70;99.90;;;;;;5135970;27;20206;-72
2022/05/15 06:21:37;;;;;;;10.27;6.10;;;13.90;99.90;;;;;;5135829;27;20195;-72
2022/05/15 06:24:05;;;;;;;9.67;6.17;;;14.10;99.90;;;;;;5135648;27;20226;-72
2022/05/15 06:26:32;;;;;;;7.77;6.33;;;14.30;99.90;;;;;;5135523;27;20239;-72
2022/05/15 06:28:58;;;;;;;11.10;5.80;;;14.50;99.90;;;;;;5135401;27;20199;-72
2022/05/15 06:31:25;;;;;;;9.80;5.83;;;14.60;99.90;;;;;;5135489;27;20565;-72
2022/05/15 06:33:52;;;;;;;7.40;5.70;;;14.80;99.90;;;;;;5135534;27;20248;-72
2022/05/15 06:36:18;;;;;;;8.13;5.73;;;14.90;99.90;;;;;;5135498;27;20671;-72
2022/05/15 06:38:45;;;;;;;8.57;6.20;;;15.00;99.90;;;;;;5135396;27;20198;-72
2022/05/15 06:41:13;;;;;;;10.67;6.10;;;15.00;99.90;;;;;;5135409;27;20199;-72
2022/05/15 06:43:40;;;;;;;6.53;5.80;;;15.20;99.90;;;;;;5135000;27;20218;-72
2022/05/15 06:46:06;;;;;;;9.13;6.23;;;15.20;99.90;;;;;;5135441;27;20202;-72
2022/05/15 06:48:35;;;;;;;8.30;6.87;;;15.30;99.90;;;;;;5135279;27;20195;-72
2022/05/15 06:51:08;;;;;;;7.67;6.33;;;15.40;99.90;;;;;;5135246;27;20198;-78
2022/05/15 06:53:35;;;;;;;8.83;6.77;;;15.60;99.90;;;;;;5127970;27;20198;-73
2022/05/15 06:58:48;;;;;;;8.00;6.53;;;15.80;99.90;;;;;;5114297;28;20203;-73
2022/05/15 07:01:15;;;;;;;9.77;6.20;;;15.80;99.90;;;;;;5114142;28;20235;-73
2022/05/15 07:03:41;;;;;;;9.33;6.60;;;16.00;99.90;;;;;;5114068;28;20232;-73
2022/05/15 07:06:10;;;;;;;9.13;5.90;;;16.10;99.90;;;;;;5113756;28;20715;-73
2022/05/15 07:08:36;;;;;;;8.70;5.38;;;16.20;99.90;;;;;;5113767;28;20191;-74
2022/05/15 07:11:03;;;;;;;8.63;5.67;;;16.30;99.90;;;;;;5113980;28;20604;-74
2022/05/15 07:13:32;;;;;;;7.37;5.13;;;16.40;99.90;;;;;;5114278;28;20249;-74
2022/05/15 07:16:00;;;;;;;7.90;5.25;;;16.50;99.90;;;;;;5114165;28;20200;-73
2022/05/15 07:18:27;;;;;;;10.63;5.13;;;16.60;99.90;;;;;;5114110;28;20191;-74
2022/05/15 07:20:54;;;;;;;7.32;5.25;;;16.70;99.90;;;;;;5113901;28;20199;-74
2022/05/15 07:23:22;;;;;;;7.78;5.28;;;16.90;99.90;;;;;;5113701;28;20647;-78
2022/05/15 07:25:50;;;;;;;6.45;4.70;;;16.90;99.90;;;;;;5114296;28;20196;-77
2022/05/15 07:28:17;;;;;;;14.13;5.07;;;17.00;99.90;;;;;;5114017;28;20196;-77
2022/05/15 07:30:44;;;;;;;8.10;5.07;;;17.20;99.90;;;;;;5113919;28;20200;-76
2022/05/15 07:33:12;;;;;;;9.25;5.05;;;17.40;99.90;;;;;;5113814;28;20241;-77
2022/05/15 07:35:38;;;;;;;8.13;4.80;;;17.60;99.90;;;;;;5113716;28;20746;-77
2022/05/15 07:38:05;;;;;;;6.55;4.70;;;17.80;99.90;;;;;;5113241;28;20427;-77
2022/05/15 07:40:32;;;;;;;9.25;4.70;;;18.10;99.90;;;;;;5114885;28;20264;-75
2022/05/15 07:42:59;;;;;;;6.03;4.22;;;18.20;99.90;;;;;;5114304;28;20203;-75
2022/05/15 07:45:25;;;;;;;7.38;4.75;;;18.30;99.90;;;;;;5115250;28;20261;-76
2022/05/15 07:47:52;;;;;;;6.78;4.00;;;18.50;99.90;;;;;;5115748;28;20704;-77
2022/05/15 07:50:20;;;;;;;9.48;4.15;;;18.70;99.90;;;;;;5113725;28;20245;-74
2022/05/15 07:52:47;;;;;;;6.63;4.40;;;18.80;99.90;;;;;;5113718;28;20196;-77
2022/05/15 07:55:14;;;;;;;8.35;4.38;;;18.90;99.90;;;;;;5113413;28;20203;-75
2022/05/15 07:57:41;;;;;;;7.07;4.28;;;19.10;99.90;;;;;;5113357;28;20219;-74
2022/05/15 08:00:11;;;;;;;7.88;4.40;;;19.30;99.90;;;;;;5113319;28;20235;-74
2022/05/15 08:02:39;;;;;;;7.32;4.35;;;19.40;99.60;;;;;;5113018;28;20287;-78
2022/05/15 08:08:01;;;;;;;8.40;4.35;;;19.60;98.60;;;;;;5113386;28;20195;-80
2022/05/15 08:10:28;;;;;;;8.82;4.40;;;19.90;98.00;;;;;;5113030;28;20195;-76
2022/05/15 08:12:55;;;;;;;6.57;3.92;;;20.00;95.00;;;;;;5114350;28;20195;-79
2022/05/15 08:15:22;;;;;;;5.15;3.90;;;20.40;94.90;;;;;;5113571;28;20200;-76
2022/05/15 08:17:49;;;;;;;4.03;3.53;;;20.50;93.10;;;;;;5129563;28;20200;-74
2022/05/15 08:25:46;;;;;;;8.25;4.70;;;20.80;86.00;;;;;;5112818;28;20319;-75
2022/05/15 08:28:14;;;;;;;5.53;3.55;;;21.10;85.90;;;;;;5113447;28;20195;-75
2022/05/15 08:30:41;;;;;;;6.53;3.63;;;21.40;77.40;;;;;;5113273;28;20200;-81
2022/05/15 08:33:11;;;;;;;6.22;3.72;;;21.40;75.10;;;;;;5113029;28;20195;-82
2022/05/15 08:35:37;;;;;;;5.03;3.25;;;21.40;73.90;;;;;;5112991;28;20195;-77
2022/05/15 08:38:06;;;;;;;6.00;2.92;;;21.60;73.20;;;;;;5113240;28;20234;-81
2022/05/15 08:40:42;;;;;;;8.88;3.53;;;21.70;68.70;;;;;;5112667;28;20252;-77
2022/05/15 08:43:10;;;;;;;8.63;2.88;;;22.00;66.90;;;;;;5112835;28;20518;-76
2022/05/15 08:45:42;;;;;;;5.10;3.13;;;22.30;62.60;;;;;;5112866;28;20223;-77
2022/05/15 08:48:13;;;;;;;5.35;3.30;;;22.30;61.70;;;;;;5112941;28;20253;-77
2022/05/15 08:50:45;;;;;;;6.13;2.80;;;22.60;63.00;;;;;;5112811;28;20195;-76
2022/05/15 08:53:19;;;;;;;5.03;2.92;;;22.60;57.80;;;;;;5112665;28;20196;-76
2022/05/15 08:55:50;;;;;;;6.78;2.85;;;23.10;58.70;;;;;;5113047;28;20207;-76
2022/05/15 08:58:22;;;;;;;5.28;2.70;;;23.10;54.40;;;;;;5112532;28;20195;-76
2022/05/15 09:00:51;;;;;;;5.35;3.10;;;23.40;55.10;;;;;;5112342;28;20694;-76
2022/05/15 09:03:21;;;;;;;6.85;2.75;;;23.90;52.80;;;;;;5112329;28;20195;-75
2022/05/15 09:05:55;;;;;;;4.75;2.70;;;23.70;49.10;;;;;;5118587;28;20208;-76
2022/05/15 09:08:51;;;;;;;4.53;3.30;;;23.80;49.70;;;;;;5129485;28;20195;-76
2022/05/15 09:11:37;;;;;;;5.72;3.10;;;24.00;48.00;;;;;;5112331;28;20200;-76
2022/05/15 09:14:12;;;;;;;4.68;2.88;;;24.40;47.80;;;;;;5111081;28;20256;-79
2022/05/15 09:16:43;;;;;;;3.22;2.78;;;24.80;47.60;;;;;;5114268;28;20301;-82
2022/05/15 09:19:10;;;;;;;4.97;2.72;;;25.00;46.80;;;;;;5112891;28;20191;-78
2022/05/15 09:21:36;;;;;;;4.05;2.78;;;25.20;43.90;;;;;;5114252;28;20200;-80
2022/05/15 09:24:09;;;;;;;6.85;2.85;;;25.30;44.20;;;;;;5115709;28;20220;-76
2022/05/15 09:26:44;;;;;;;5.80;3.00;;;25.60;43.10;;;;;;5114108;28;20213;-76
2022/05/15 09:29:17;;;;;;;3.90;2.80;;;25.80;41.70;;;;;;5113471;28;20209;-76
2022/05/15 09:31:44;;;;;;;5.07;2.42;;;26.00;39.90;;;;;;5113735;28;20196;-75
2022/05/15 09:34:22;;;;;;;5.43;2.58;;;26.10;37.70;;;;;;5114164;28;20206;-83
2022/05/15 09:36:50;;;;;;;4.85;2.60;;;26.20;34.70;;;;;;5115194;27;20199;-88
2022/05/15 09:39:25;;;;;;;6.72;2.70;;;26.30;34.00;;;;;;5136363;27;20212;-85
2022/05/15 09:44:48;;;;;;;4.68;2.75;;;26.80;30.50;;;;;;5126647;27;20238;-87
2022/05/15 09:47:29;;;;;;;6.35;2.50;;;27.20;29.80;;;;;;5124040;27;20208;-87
2022/05/15 09:49:56;;;;;;;4.97;2.70;;;27.20;29.70;;;;;;5129067;27;20256;-85
2022/05/15 09:52:31;;;;;;;2.83;2.40;;;27.00;26.60;;;;;;5127578;27;20240;-88
2022/05/15 09:55:11;;;;;;;7.18;2.75;;;27.30;25.70;;;;;;5123659;27;20198;-80
2022/05/15 09:57:38;;;;;;;3.40;2.70;;;27.80;28.00;;;;;;5113367;28;20207;-78
2022/05/15 10:00:09;;;;;;;5.45;2.80;;;28.00;27.40;;;;;;5113524;28;20280;-85
2022/05/15 10:02:42;;;;;;;4.97;2.90;;;28.10;26.10;;;;;;5112666;28;20192;-74
2022/05/15 10:05:17;;;;;;;4.55;2.60;;;28.10;25.80;;;;;;5113107;28;20226;-74
2022/05/15 10:07:52;;;;;;;4.55;2.20;;;28.10;25.60;;;;;;5113228;28;20195;-78
2022/05/15 10:10:23;;;;;;;5.80;2.33;;;28.50;25.20;;;;;;5113205;28;20195;-71
2022/05/15 10:12:54;;;;;;;4.60;2.42;;;28.80;23.80;;;;;;5113032;28;20203;-78
2022/05/15 10:15:24;;;;;;;8.52;2.60;;;28.80;22.60;;;;;;5111956;28;20196;-75
2022/05/15 10:17:54;;;;;;;7.15;2.70;;;29.00;23.40;;;;;;5110056;28;20196;-75
2022/05/15 10:20:25;;;;;;;4.53;2.17;;;28.90;21.90;;;;;;5112537;28;20222;-75
2022/05/15 10:22:58;;;;;;;4.60;2.70;;;28.40;20.10;;;;;;5112254;28;20618;-75
2022/05/15 10:25:35;;;;;;;6.72;2.90;;;27.90;20.30;;;;;;5112813;28;20489;-75
2022/05/15 10:28:13;;;;;;;3.78;2.42;;;28.10;19.20;;;;;;5112734;28;20207;-75
2022/05/15 10:30:49;;;;;;;5.00;2.40;;;27.90;19.40;;;;;;5110931;28;20200;-76
2022/05/15 10:33:20;;;;;;;4.43;2.55;;;28.70;22.20;;;;;;5110791;28;20206;-75
2022/05/15 10:35:57;;;;;;;3.65;2.15;;;29.60;22.60;;;;;;5110626;28;20203;-75
2022/05/15 10:38:39;;;;;;;6.63;2.90;;;30.10;21.60;;;;;;5110499;28;20195;-75
2022/05/15 10:41:16;;;;;;;8.32;2.65;;;29.80;20.80;;;;;;5110588;28;20224;-75
2022/05/15 10:43:53;;;;;;;5.15;2.55;;;30.10;19.70;;;;;;5110711;28;20239;-75
2022/05/15 10:46:27;;;;;;;7.50;2.63;;;29.70;18.80;;;;;;5112406;28;20234;-76
2022/05/15 10:49:07;;;;;;;6.55;2.45;;;29.80;19.40;;;;;;5112395;28;20233;-76
2022/05/15 10:51:40;;;;;;;4.03;2.40;;;30.10;18.90;;;;;;5111854;28;20791;-75
2022/05/15 10:57:24;;;;;;;5.25;2.50;;;29.40;18.80;;;;;;5112128;28;20202;-76
2022/05/15 10:59:55;;;;;;;5.90;2.50;;;30.20;19.40;;;;;;5111890;28;20302;-76
2022/05/15 11:02:47;;;;;;;3.90;2.40;;;29.80;18.60;;;;;;5114002;28;20256;-76
2022/05/15 11:05:21;;;;;;;4.28;2.20;;;30.10;17.80;;;;;;5075699;28;20315;-74
2022/05/15 11:07:55;;;;;;;2.85;2.13;;;29.10;17.20;;;;;;5116025;27;20203;-79
2022/05/15 11:10:27;;;;;;;4.75;2.45;;;28.60;17.50;;;;;;5125053;27;20243;-79
2022/05/15 11:13:03;;;;;;;3.05;2.30;;;29.40;16.20;;;;;;5131301;27;20201;-75
2022/05/15 11:15:53;;;;;;;5.57;2.40;;;29.70;16.50;;;;;;5114859;28;20195;-80
2022/05/15 11:18:35;;;;;;;4.43;2.22;;;31.70;17.70;;;;;;5113411;28;20199;-82
2022/05/15 11:21:05;;;;;;;3.95;2.60;;;32.80;17.20;;;;;;5114304;28;20199;-80
2022/05/15 11:23:42;;;;;;;6.18;2.75;;;33.40;14.80;;;;;;5114062;28;20252;-84
2022/05/15 11:26:15;;;;;;;4.38;2.42;;;33.30;14.50;;;;;;5111094;28;20278;-73
2022/05/15 11:28:47;;;;;;;4.18;2.42;;;33.00;13.60;;;;;;5113474;28;20195;-80
2022/05/15 11:31:18;;;;;;;6.55;2.30;;;32.90;13.90;;;;;;5114730;28;20195;-79
2022/05/15 11:33:51;;;;;;;3.53;2.20;;;33.10;13.50;;;;;;5127264;28;20244;-76
2022/05/15 11:36:35;;;;;;;5.53;2.33;;;34.10;12.20;;;;;;5128972;28;20220;-77
2022/05/15 11:39:06;;;;;;;3.70;2.20;;;34.00;12.00;;;;;;5117209;28;20191;-79
2022/05/15 11:41:41;;;;;;;4.20;2.40;;;34.40;12.20;;;;;;5111418;28;20207;-79
2022/05/15 11:44:12;;;;;;;8.20;2.60;;;35.30;11.30;;;;;;5110398;28;20206;-75
2022/05/15 11:47:23;;;;;;;4.75;2.28;;;35.90;11.10;;;;;;5112134;28;20199;-76
2022/05/15 11:50:09;;;;;;;3.35;2.25;;;36.10;10.40;;;;;;5074116;28;20198;-75
2022/05/15 11:52:40;;;;;;;6.63;2.33;;;36.60;10.90;;;;;;5113415;28;20195;-69
2022/05/15 11:55:39;;;;;;;3.70;2.45;;;37.60;10.20;;;;;;5113378;28;20291;-74
2022/05/15 11:58:36;;;;;;;6.43;2.28;;;37.90;9.80;;;;;;5113399;28;20209;-76
2022/05/15 12:01:12;;;;;;;3.60;2.20;;;38.20;8.70;;;;;;5113064;28;20230;-74
2022/05/15 12:03:50;;;;;;;6.75;2.60;;;38.10;8.30;;;;;;5113375;28;20205;-75
2022/05/15 12:06:23;;;;;;;3.50;2.45;;;38.90;8.30;;;;;;5112319;28;20933;-76
2022/05/15 12:09:09;;;;;;;6.18;2.47;;;39.30;8.10;;;;;;5112878;28;20195;-75
2022/05/15 12:11:36;;;;;;;4.20;2.60;;;39.20;8.50;;;;;;5111528;28;20199;-76
2022/05/15 12:14:29;;;;;;;4.05;2.53;;;39.70;7.70;;;;;;5112605;28;20202;-75
2022/05/15 12:17:03;;;;;;;4.05;2.17;;;39.70;7.40;;;;;;5112618;28;20520;-75
2022/05/15 12:19:32;;;;;;;6.13;2.50;;;39.90;7.40;;;;;;5113484;28;20278;-77
2022/05/15 12:22:06;;;;;;;4.80;2.65;;;39.90;6.50;;;;;;5112885;28;20657;-81
2022/05/15 12:24:36;;;;;;;5.97;2.63;;;39.20;6.00;;;;;;5121150;28;20216;-75
2022/05/15 12:27:19;;;;;;;4.75;2.30;;;39.40;6.50;;;;;;5119200;28;20206;-76
2022/05/15 12:29:55;;;;;;;4.88;2.67;;;39.50;6.60;;;;;;5111408;28;20186;-75
2022/05/15 12:32:30;;;;;;;6.55;2.20;;;39.90;6.10;;;;;;5111413;28;20198;-76
2022/05/15 12:34:59;;;;;;;4.53;2.28;;;40.30;5.90;;;;;;5111335;28;20248;-76
2022/05/15 12:37:29;;;;;;;2.58;2.03;;;38.40;5.50;;;;;;5111581;28;20217;-75
2022/05/15 12:39:58;;;;;;;2.28;2.08;;;37.60;6.20;;;;;;5111990;28;20202;-75
2022/05/15 12:42:33;;;;;;;5.85;2.20;;;38.50;6.20;;;;;;5111671;28;20273;-75
2022/05/15 12:45:06;;;;;;;3.97;2.33;;;38.40;6.60;;;;;;5113074;28;20191;-76
2022/05/15 12:47:36;;;;;;;3.22;2.55;;;39.00;6.10;;;;;;5113430;28;20595;-75
2022/05/15 12:50:11;;;;;;;4.43;2.40;;;38.20;6.80;;;;;;5113037;28;20225;-75
2022/05/15 12:52:39;;;;;;;5.35;2.38;;;38.10;7.20;;;;;;5112725;28;20197;-75
2022/05/15 12:55:10;;;;;;;2.88;2.08;;;37.80;7.10;;;;;;5113470;28;20735;-75
2022/05/15 12:57:44;;;;;;;2.13;1.77;;;37.70;7.00;;;;;;5116985;28;20215;-74
2022/05/15 13:00:14;;;;;;;5.25;2.20;;;37.90;7.20;;;;;;5116730;28;20226;-75
2022/05/15 13:02:42;;;;;;;5.65;2.63;;;38.10;6.70;;;;;;5116492;28;20600;-75
2022/05/15 13:05:20;;;;;;;6.43;2.40;;;39.30;6.80;;;;;;5116546;28;20214;-74
2022/05/15 13:07:47;;;;;;;5.78;2.30;;;40.20;5.20;;;;;;5116642;28;20252;-75
2022/05/15 13:10:19;;;;;;;6.68;2.40;;;39.80;5.20;;;;;;5116734;28;20252;-75
2022/05/15 13:12:53;;;;;;;4.60;2.00;;;39.10;5.70;;;;;;5116618;28;20226;-75
2022/05/15 13:15:24;;;;;;;7.38;2.50;;;39.80;5.80;;;;;;5116342;28;20215;-75
2022/05/15 13:17:54;;;;;;;5.35;2.50;;;40.70;5.70;;;;;;5116611;28;20260;-75
2022/05/15 13:20:22;;;;;;;3.00;2.22;;;41.30;4.80;;;;;;5116321;28;20655;-75
2022/05/15 13:22:50;;;;;;;4.57;2.30;;;41.70;4.80;;;;;;5116321;28;20199;-75
2022/05/15 13:25:22;;;;;;;3.30;2.40;;;42.00;4.80;;;;;;5116239;28;20195;-75
2022/05/15 13:27:49;;;;;;;5.05;2.17;;;41.90;4.60;;;;;;5116266;28;20195;-75